Time;durP1;ratioP1;P1;durP2;ratioP2;P2;SDS_P1;SDS_P2;PMS_P1;PMS_P2;Temp;Humidity;BMP_temperature;BMP_pressure;BME280_temperature;BME280_humidity;BME280_pressure;Samples;Min_cycle;Max_cycle;Signal;HPM_P1;HPM_P2
2024/01/02 00:01:47;;;;;;;18.10;12.80;;;;;;;;;;5112684;28;20200;-82
2024/01/02 00:04:13;;;;;;;21.00;15.90;;;;;;;;;;5113053;28;20191;-82
2024/01/02 00:06:40;;;;;;;18.37;13.43;;;;;;;;;;5112518;28;20564;-82
2024/01/02 00:09:07;;;;;;;19.23;15.03;;;;;;;;;;5112967;28;20302;-82
2024/01/02 00:11:38;;;;;;;15.37;11.07;;;;;;;;;;5113030;28;20286;-82
2024/01/02 00:14:07;;;;;;;12.90;11.50;;;;;;;;;;5110834;28;20206;-82
2024/01/02 00:16:34;;;;;;;13.80;12.13;;;;;;;;;;5111255;28;20215;-82
2024/01/02 00:19:01;;;;;;;14.50;12.40;;;;;;;;;;5112735;28;20208;-82
2024/01/02 00:21:28;;;;;;;16.07;12.23;;;;;;;;;;5112221;28;20661;-83
2024/01/02 00:23:57;;;;;;;15.63;12.27;;;;;;;;;;5112376;28;20195;-82
2024/01/02 00:26:23;;;;;;;17.87;13.13;;;;;;;;;;5112334;28;20214;-82
2024/01/02 00:28:51;;;;;;;12.50;10.53;;;;;;;;;;5113132;28;20264;-82
2024/01/02 00:31:19;;;;;;;11.90;10.80;;;;;;;;;;5110557;28;20219;-82
2024/01/02 00:33:46;;;;;;;11.07;8.90;;;;;;;;;;5111456;28;20199;-82
2024/01/02 00:36:13;;;;;;;17.13;12.87;;;;;;;;;;5111563;28;20681;-82
2024/01/02 00:38:39;;;;;;;16.07;13.00;;;;;;;;;;5112794;28;20191;-82
2024/01/02 00:41:06;;;;;;;14.47;11.40;;;;;;;;;;5110743;28;20191;-82
2024/01/02 00:43:33;;;;;;;12.40;11.10;;;;;;;;;;5111328;28;20606;-82
2024/01/02 00:46:01;;;;;;;11.20;10.07;;;;;;;;;;5111385;28;20227;-82
2024/01/02 00:48:28;;;;;;;13.03;10.70;;;;;;;;;;5111124;28;20211;-81
2024/01/02 00:50:55;;;;;;;13.97;11.43;;;;;;;;;;5111567;28;20195;-82
2024/01/02 00:53:22;;;;;;;14.97;11.83;;;;;;;;;;5111932;28;20202;-82
2024/01/02 00:55:50;;;;;;;11.07;9.97;;;;;;;;;;5112142;28;20256;-82
2024/01/02 00:58:18;;;;;;;10.60;9.37;;;;;;;;;;5110854;28;20211;-82
2024/01/02 01:00:44;;;;;;;12.87;9.73;;;;;;;;;;5111909;28;20290;-82
2024/01/02 01:03:13;;;;;;;14.83;10.57;;;;;;;;;;5112075;28;20192;-82
2024/01/02 01:05:40;;;;;;;12.73;10.43;;;;;;;;;;5111860;28;20196;-83
2024/01/02 01:08:09;;;;;;;11.47;10.37;;;;;;;;;;5096282;28;20198;-82
2024/01/02 01:10:36;;;;;;;13.20;10.47;;;;;;;;;;5095694;28;20200;-82
2024/01/02 01:13:03;;;;;;;14.60;10.40;;;;;;;;;;5102125;28;20202;-82
2024/01/02 01:15:30;;;;;;;14.00;10.80;;;;;;;;;;5114933;28;20202;-82
2024/01/02 01:17:57;;;;;;;12.10;10.60;;;;;;;;;;5116101;28;20222;-82
2024/01/02 01:20:25;;;;;;;16.37;10.53;;;;;;;;;;5114735;28;20204;-83
2024/01/02 01:22:52;;;;;;;13.33;10.47;;;;;;;;;;5114512;28;20198;-82
2024/01/02 01:25:20;;;;;;;12.17;9.17;;;;;;;;;;5115610;28;20195;-82
2024/01/02 01:27:47;;;;;;;11.57;9.97;;;;;;;;;;5116422;28;20269;-82
2024/01/02 01:30:15;;;;;;;9.67;8.67;;;;;;;;;;5115101;28;20253;-82
2024/01/02 01:32:44;;;;;;;12.53;9.47;;;;;;;;;;5114682;28;20222;-82
2024/01/02 01:35:11;;;;;;;9.60;8.33;;;;;;;;;;5115140;28;20230;-82
2024/01/02 01:37:39;;;;;;;9.20;8.30;;;;;;;;;;5115368;28;20219;-82
2024/01/02 01:40:08;;;;;;;11.23;8.87;;;;;;;;;;5096871;28;20200;-82
2024/01/02 01:42:34;;;;;;;11.87;9.17;;;;;;;;;;5093430;28;20224;-82
2024/01/02 01:45:01;;;;;;;10.90;9.07;;;;;;;;;;5094767;28;20211;-83
2024/01/02 01:47:28;;;;;;;11.90;10.63;;;;;;;;;;5113005;28;20227;-82
2024/01/02 01:49:55;;;;;;;12.33;9.80;;;;;;;;;;5115475;28;20200;-82
2024/01/02 01:52:22;;;;;;;10.27;8.03;;;;;;;;;;5115397;28;20218;-82
2024/01/02 01:54:51;;;;;;;10.63;8.87;;;;;;;;;;5114918;28;20207;-82
2024/01/02 01:57:20;;;;;;;10.47;8.73;;;;;;;;;;5114940;28;20223;-82
2024/01/02 01:59:46;;;;;;;9.87;8.73;;;;;;;;;;5115479;28;20203;-82
2024/01/02 02:02:13;;;;;;;8.87;7.93;;;;;;;;;;5115060;28;20203;-82
2024/01/02 02:04:44;;;;;;;10.23;8.53;;;;;;;;;;5113154;28;20574;-83
2024/01/02 02:07:12;;;;;;;9.07;8.17;;;;;;;;;;5115128;28;20537;-82
2024/01/02 02:09:38;;;;;;;8.97;7.53;;;;;;;;;;5114005;28;20203;-82
2024/01/02 02:12:08;;;;;;;9.90;7.87;;;;;;;;;;5113910;28;20658;-82
2024/01/02 02:14:34;;;;;;;9.17;8.27;;;;;;;;;;5114193;28;20201;-82
2024/01/02 02:17:02;;;;;;;9.40;8.17;;;;;;;;;;5114514;28;20226;-82
2024/01/02 02:19:29;;;;;;;8.97;8.03;;;;;;;;;;5114126;28;20196;-82
2024/01/02 02:21:56;;;;;;;8.83;7.90;;;;;;;;;;5107376;28;20192;-82
2024/01/02 02:24:24;;;;;;;8.07;7.27;;;;;;;;;;5093996;28;20200;-83
2024/01/02 02:26:52;;;;;;;10.27;7.50;;;;;;;;;;5094339;28;20211;-82
2024/01/02 02:29:19;;;;;;;9.40;8.40;;;;;;;;;;5098898;28;20195;-82
2024/01/02 02:31:45;;;;;;;9.17;8.20;;;;;;;;;;5114637;28;20220;-82
2024/01/02 02:34:12;;;;;;;8.80;7.90;;;;;;;;;;5113303;28;20207;-82
2024/01/02 02:36:39;;;;;;;8.53;7.67;;;;;;;;;;5114104;28;20227;-82
2024/01/02 02:39:09;;;;;;;10.80;8.93;;;;;;;;;;5112736;28;20199;-82
2024/01/02 02:41:38;;;;;;;9.60;8.50;;;;;;;;;;5113498;28;20279;-82
2024/01/02 02:44:05;;;;;;;9.67;7.67;;;;;;;;;;5114101;28;20195;-82
2024/01/02 02:46:32;;;;;;;8.13;7.30;;;;;;;;;;5114189;28;20195;-83
2024/01/02 02:48:58;;;;;;;10.60;7.80;;;;;;;;;;5113744;28;20195;-83
2024/01/02 02:51:25;;;;;;;8.03;7.23;;;;;;;;;;5096329;28;20203;-83
2024/01/02 02:53:52;;;;;;;7.60;6.70;;;;;;;;;;5093877;28;20192;-82
2024/01/02 02:56:19;;;;;;;10.60;7.63;;;;;;;;;;5093639;28;20205;-83
2024/01/02 02:58:47;;;;;;;8.40;6.80;;;;;;;;;;5093718;28;20588;-83
2024/01/02 03:01:22;;;;;;;8.77;7.07;;;;;;;;;;5093745;28;20193;-83
2024/01/02 03:03:51;;;;;;;7.83;7.13;;;;;;;;;;5093264;28;20200;-83
2024/01/02 03:06:18;;;;;;;7.93;6.47;;;;;;;;;;5110108;28;20195;-83
2024/01/02 03:08:44;;;;;;;11.93;8.77;;;;;;;;;;5112925;28;20195;-83
2024/01/02 03:11:11;;;;;;;11.47;9.73;;;;;;;;;;5112519;28;20203;-83
2024/01/02 03:13:38;;;;;;;11.07;9.03;;;;;;;;;;5113133;28;20195;-83
2024/01/02 03:16:08;;;;;;;8.87;7.97;;;;;;;;;;5113598;28;20218;-83
2024/01/02 03:18:35;;;;;;;10.97;8.30;;;;;;;;;;5113387;28;20227;-83
2024/01/02 03:21:02;;;;;;;8.87;7.93;;;;;;;;;;5113400;28;20196;-83
2024/01/02 03:23:28;;;;;;;8.33;7.13;;;;;;;;;;5113435;28;20195;-83
2024/01/02 03:25:55;;;;;;;7.97;7.10;;;;;;;;;;5113072;28;20196;-82
2024/01/02 03:28:22;;;;;;;7.63;6.53;;;;;;;;;;5113493;28;20203;-83
2024/01/02 03:30:52;;;;;;;10.33;8.53;;;;;;;;;;5113059;28;20680;-83
2024/01/02 03:33:20;;;;;;;7.83;7.13;;;;;;;;;;5113457;28;20198;-83
2024/01/02 03:35:47;;;;;;;14.57;9.83;;;;;;;;;;5113044;28;20197;-83
2024/01/02 03:38:14;;;;;;;9.43;8.43;;;;;;;;;;5111530;28;20215;-82
2024/01/02 03:40:41;;;;;;;10.57;8.90;;;;;;;;;;5112196;28;20199;-82
2024/01/02 03:43:08;;;;;;;31.90;23.40;;;;;;;;;;5112251;28;20195;-82
2024/01/02 03:45:35;;;;;;;25.70;18.13;;;;;;;;;;5112566;28;20200;-83
2024/01/02 03:48:02;;;;;;;27.47;18.27;;;;;;;;;;5112480;28;20206;-82
2024/01/02 03:50:30;;;;;;;17.53;12.37;;;;;;;;;;5113060;28;20744;-83
2024/01/02 03:52:57;;;;;;;12.23;10.27;;;;;;;;;;5112683;28;20196;-82
2024/01/02 03:55:24;;;;;;;11.93;10.30;;;;;;;;;;5111961;28;20191;-82
2024/01/02 03:57:51;;;;;;;12.53;10.13;;;;;;;;;;5112850;28;20222;-82
2024/01/02 04:00:18;;;;;;;12.60;10.60;;;;;;;;;;5112499;28;20202;-82
2024/01/02 04:02:45;;;;;;;11.43;8.83;;;;;;;;;;5112607;28;20192;-82
2024/01/02 04:05:12;;;;;;;9.70;7.73;;;;;;;;;;5112567;28;20195;-82
2024/01/02 04:07:41;;;;;;;8.53;7.57;;;;;;;;;;5111625;28;20200;-82
2024/01/02 04:10:08;;;;;;;9.27;7.93;;;;;;;;;;5110930;28;20195;-82
2024/01/02 04:12:35;;;;;;;8.40;7.60;;;;;;;;;;5112028;28;20228;-82
2024/01/02 04:15:02;;;;;;;10.77;7.90;;;;;;;;;;5112569;28;20248;-82
2024/01/02 04:17:29;;;;;;;9.17;7.27;;;;;;;;;;5111834;28;20195;-82
2024/01/02 04:19:55;;;;;;;10.73;7.73;;;;;;;;;;5112146;28;20621;-82
2024/01/02 04:22:22;;;;;;;9.40;7.90;;;;;;;;;;5112245;28;20666;-82
2024/01/02 04:24:51;;;;;;;9.90;7.97;;;;;;;;;;5112652;28;20195;-82
2024/01/02 04:27:18;;;;;;;7.97;6.83;;;;;;;;;;5112751;28;20245;-82
2024/01/02 04:29:45;;;;;;;8.73;7.67;;;;;;;;;;5112321;28;20191;-85
2024/01/02 04:32:12;;;;;;;8.80;7.63;;;;;;;;;;5113056;28;20219;-85
2024/01/02 04:34:39;;;;;;;8.63;7.83;;;;;;;;;;5110934;28;20192;-85
2024/01/02 04:37:08;;;;;;;7.97;7.03;;;;;;;;;;5112254;28;20196;-82
2024/01/02 04:39:36;;;;;;;8.60;6.73;;;;;;;;;;5092299;28;20224;-81
2024/01/02 04:42:06;;;;;;;7.97;6.90;;;;;;;;;;5112066;28;20202;-86
2024/01/02 04:44:33;;;;;;;6.33;5.73;;;;;;;;;;5119511;28;20199;-86
2024/01/02 04:47:00;;;;;;;7.50;6.43;;;;;;;;;;5117635;28;20252;-85
2024/01/02 04:49:27;;;;;;;9.67;7.10;;;;;;;;;;5119118;28;20195;-84
2024/01/02 04:51:53;;;;;;;8.03;6.73;;;;;;;;;;5117779;28;20203;-80
2024/01/02 04:54:20;;;;;;;7.67;6.80;;;;;;;;;;5115902;28;20199;-82
2024/01/02 04:56:47;;;;;;;11.07;7.07;;;;;;;;;;5098156;28;20199;-81
2024/01/02 04:59:17;;;;;;;8.90;6.87;;;;;;;;;;5098252;28;20227;-80
2024/01/02 05:01:44;;;;;;;8.77;7.87;;;;;;;;;;5098911;28;20206;-80
2024/01/02 05:04:11;;;;;;;7.93;7.13;;;;;;;;;;5098779;28;20211;-81
2024/01/02 05:06:38;;;;;;;7.83;6.93;;;;;;;;;;5104482;28;20198;-81
2024/01/02 05:09:08;;;;;;;10.50;7.70;;;;;;;;;;5117830;28;20709;-80
2024/01/02 05:11:37;;;;;;;8.57;7.67;;;;;;;;;;5114685;28;20283;-81
2024/01/02 05:14:03;;;;;;;7.37;6.60;;;;;;;;;;5112860;28;20680;-81
2024/01/02 05:16:32;;;;;;;9.60;6.63;;;;;;;;;;5096744;28;20196;-85
2024/01/02 05:18:58;;;;;;;19.67;14.10;;;;;;;;;;5100049;28;20215;-85
2024/01/02 05:21:25;;;;;;;26.23;21.00;;;;;;;;;;5108714;28;20196;-86
2024/01/02 05:23:52;;;;;;;17.63;13.53;;;;;;;;;;5106580;28;20215;-86
2024/01/02 05:26:19;;;;;;;11.53;9.23;;;;;;;;;;5099648;28;20669;-83
2024/01/02 05:28:46;;;;;;;7.87;7.07;;;;;;;;;;5117907;28;20567;-83
2024/01/02 05:31:12;;;;;;;8.37;7.57;;;;;;;;;;5118847;28;20574;-83
2024/01/02 05:33:41;;;;;;;8.93;6.63;;;;;;;;;;5118493;28;20549;-84
2024/01/02 05:36:08;;;;;;;7.03;6.23;;;;;;;;;;5116608;28;20199;-84
2024/01/02 05:38:35;;;;;;;7.67;6.57;;;;;;;;;;5118722;28;20219;-84
2024/01/02 05:41:01;;;;;;;7.63;6.73;;;;;;;;;;5118649;28;20198;-83
2024/01/02 05:43:31;;;;;;;11.73;6.83;;;;;;;;;;5118464;28;20196;-83
2024/01/02 05:45:58;;;;;;;7.20;6.50;;;;;;;;;;5078248;28;20330;-83
2024/01/02 05:48:25;;;;;;;9.17;7.00;;;;;;;;;;5106262;28;20195;-82
2024/01/02 05:50:53;;;;;;;7.03;6.33;;;;;;;;;;5118792;28;20272;-83
2024/01/02 05:53:20;;;;;;;7.03;5.87;;;;;;;;;;5114847;28;20191;-83
2024/01/02 05:55:47;;;;;;;6.20;5.60;;;;;;;;;;5113377;28;20188;-83
2024/01/02 05:58:13;;;;;;;8.37;6.13;;;;;;;;;;5113693;28;20223;-83
2024/01/02 06:00:40;;;;;;;8.33;6.57;;;;;;;;;;5113765;28;20188;-82
2024/01/02 06:03:07;;;;;;;11.93;9.70;;;;;;;;;;5113286;28;20207;-83
2024/01/02 06:05:34;;;;;;;7.40;6.60;;;;;;;;;;5113745;28;20568;-83
2024/01/02 06:08:02;;;;;;;6.20;5.60;;;;;;;;;;5113431;28;20647;-83
2024/01/02 06:10:32;;;;;;;8.03;5.47;;;;;;;;;;5112868;28;20681;-83
2024/01/02 06:12:58;;;;;;;6.73;6.00;;;;;;;;;;5113759;28;20666;-83
2024/01/02 06:15:25;;;;;;;7.20;5.63;;;;;;;;;;5113785;28;20573;-82
2024/01/02 06:17:53;;;;;;;7.60;5.70;;;;;;;;;;5113403;28;20203;-83
2024/01/02 06:20:20;;;;;;;10.13;6.27;;;;;;;;;;5114387;28;20260;-83
2024/01/02 06:22:47;;;;;;;6.87;5.73;;;;;;;;;;5113579;28;20612;-83
2024/01/02 06:25:15;;;;;;;5.80;5.23;;;;;;;;;;5111983;28;20577;-82
2024/01/02 06:27:42;;;;;;;7.50;5.77;;;;;;;;;;5113078;28;20195;-83
2024/01/02 06:30:09;;;;;;;5.17;4.67;;;;;;;;;;5113500;28;20207;-83
2024/01/02 06:32:36;;;;;;;7.03;5.47;;;;;;;;;;5112464;28;20277;-83
2024/01/02 06:35:03;;;;;;;14.03;11.07;;;;;;;;;;5100941;28;20199;-82
2024/01/02 06:37:33;;;;;;;21.33;17.50;;;;;;;;;;5112608;28;20202;-82
2024/01/02 06:40:00;;;;;;;40.53;27.37;;;;;;;;;;5113650;28;20300;-83
2024/01/02 06:42:28;;;;;;;32.33;22.60;;;;;;;;;;5113045;28;20204;-82
2024/01/02 06:44:55;;;;;;;17.23;14.17;;;;;;;;;;5113265;28;20196;-83
2024/01/02 06:47:22;;;;;;;12.97;9.93;;;;;;;;;;5112772;28;20299;-83
2024/01/02 06:49:49;;;;;;;7.43;6.07;;;;;;;;;;5113495;28;20271;-83
2024/01/02 06:52:16;;;;;;;21.03;15.13;;;;;;;;;;5110530;28;20256;-83
2024/01/02 06:54:44;;;;;;;87.43;49.07;;;;;;;;;;5113397;28;20545;-82
2024/01/02 06:57:11;;;;;;;42.47;28.70;;;;;;;;;;5112977;28;20256;-83
2024/01/02 06:59:39;;;;;;;30.53;21.90;;;;;;;;;;5113021;28;20226;-82
2024/01/02 07:02:09;;;;;;;26.00;16.70;;;;;;;;;;5112585;28;20203;-83
2024/01/02 07:04:38;;;;;;;14.30;11.60;;;;;;;;;;5112491;28;20286;-82
2024/01/02 07:07:05;;;;;;;11.93;9.40;;;;;;;;;;5113039;28;20256;-82
2024/01/02 07:09:31;;;;;;;8.10;6.90;;;;;;;;;;5112507;28;20234;-81
2024/01/02 07:11:58;;;;;;;8.00;7.07;;;;;;;;;;5112846;28;20543;-82
2024/01/02 07:14:25;;;;;;;10.53;9.20;;;;;;;;;;5113106;28;20227;-82
2024/01/02 07:16:53;;;;;;;10.73;7.17;;;;;;;;;;5112040;28;20423;-82
2024/01/02 07:19:20;;;;;;;8.87;6.83;;;;;;;;;;5112739;28;20227;-82
2024/01/02 07:21:47;;;;;;;6.10;5.50;;;;;;;;;;5112544;28;20204;-82
2024/01/02 07:24:15;;;;;;;6.07;5.23;;;;;;;;;;5112416;28;20549;-81
2024/01/02 07:26:43;;;;;;;6.50;5.50;;;;;;;;;;5112102;28;20286;-82
2024/01/02 07:29:10;;;;;;;4.70;4.20;;;;;;;;;;5112324;28;20196;-82
2024/01/02 07:31:36;;;;;;;6.97;6.27;;;;;;;;;;5112661;28;20219;-81
2024/01/02 07:34:05;;;;;;;46.47;30.50;;;;;;;;;;5112338;28;20199;-80
2024/01/02 07:36:32;;;;;;;26.87;21.60;;;;;;;;;;5112057;28;20599;-81
2024/01/02 07:38:58;;;;;;;29.93;25.87;;;;;;;;;;5112222;28;20215;-80
2024/01/02 07:41:26;;;;;;;23.10;16.80;;;;;;;;;;5111884;28;20194;-80
2024/01/02 07:43:52;;;;;;;17.80;15.37;;;;;;;;;;5112146;28;20195;-80
2024/01/02 07:46:19;;;;;;;16.37;14.40;;;;;;;;;;5112401;28;20204;-79
2024/01/02 07:48:46;;;;;;;11.70;9.97;;;;;;;;;;5111663;28;20199;-79
2024/01/02 07:51:14;;;;;;;13.50;11.00;;;;;;;;;;5112107;28;20195;-79
2024/01/02 07:53:41;;;;;;;10.50;9.20;;;;;;;;;;5112545;28;20196;-79
2024/01/02 07:56:08;;;;;;;11.37;8.73;;;;;;;;;;5111647;28;20191;-79
2024/01/02 07:58:35;;;;;;;24.27;19.00;;;;;;;;;;5111955;28;20199;-79
2024/01/02 08:01:02;;;;;;;28.47;20.80;;;;;;;;;;5111850;28;20199;-80
2024/01/02 08:03:29;;;;;;;10.97;9.50;;;;;;;;;;5111873;28;20248;-79
2024/01/02 08:05:55;;;;;;;9.40;7.07;;;;;;;;;;5112114;28;20549;-79
2024/01/02 08:08:24;;;;;;;7.03;6.43;;;;;;;;;;5111862;28;20203;-79
2024/01/02 08:10:51;;;;;;;7.33;5.73;;;;;;;;;;5111962;28;20188;-78
2024/01/02 08:13:18;;;;;;;9.63;8.60;;;;;;;;;;5111665;28;20256;-79
2024/01/02 08:15:45;;;;;;;12.83;8.33;;;;;;;;;;5110572;28;20291;-83
2024/01/02 08:18:12;;;;;;;28.73;25.77;;;;;;;;;;5111394;28;20584;-79
2024/01/02 08:20:39;;;;;;;15.97;14.23;;;;;;;;;;5111678;28;20685;-78
2024/01/02 08:23:08;;;;;;;10.03;8.93;;;;;;;;;;5111055;28;20188;-79
2024/01/02 08:25:36;;;;;;;9.20;8.07;;;;;;;;;;5111874;28;20241;-80
2024/01/02 08:28:04;;;;;;;11.20;7.97;;;;;;;;;;5111197;28;20199;-78
2024/01/02 08:30:31;;;;;;;12.00;9.83;;;;;;;;;;5111696;28;20200;-78
2024/01/02 08:32:57;;;;;;;28.20;17.63;;;;;;;;;;5110938;28;20226;-78
2024/01/02 08:35:24;;;;;;;14.77;11.10;;;;;;;;;;5111454;28;20206;-78
2024/01/02 08:37:51;;;;;;;72.27;20.63;;;;;;;;;;5111573;28;20191;-78
2024/01/02 08:40:18;;;;;;;34.63;11.20;;;;;;;;;;5111211;28;20234;-78
2024/01/02 08:42:47;;;;;;;12.40;6.20;;;;;;;;;;5110897;28;20192;-78
2024/01/02 08:45:13;;;;;;;6.93;5.57;;;;;;;;;;5110942;28;20195;-78
2024/01/02 08:47:40;;;;;;;24.27;16.80;;;;;;;;;;5111257;28;20195;-78
2024/01/02 08:50:08;;;;;;;14.33;10.53;;;;;;;;;;5111041;28;20266;-78
2024/01/02 08:52:35;;;;;;;10.87;6.63;;;;;;;;;;5108452;28;20640;-78
2024/01/02 08:55:02;;;;;;;12.07;8.63;;;;;;;;;;5111304;28;20202;-79
2024/01/02 08:57:29;;;;;;;11.27;7.63;;;;;;;;;;5110792;28;20678;-78
2024/01/02 08:59:57;;;;;;;6.93;6.23;;;;;;;;;;5111304;28;20593;-78
2024/01/02 09:02:24;;;;;;;5.23;4.77;;;;;;;;;;5110757;28;20207;-78
2024/01/02 09:04:50;;;;;;;6.40;4.63;;;;;;;;;;5111166;28;20219;-79
2024/01/02 09:07:17;;;;;;;7.73;5.90;;;;;;;;;;5111520;28;20218;-78
2024/01/02 09:09:45;;;;;;;6.67;5.90;;;;;;;;;;5111652;28;20207;-77
2024/01/02 09:12:12;;;;;;;6.60;5.97;;;;;;;;;;5110386;28;20286;-78
2024/01/02 09:14:38;;;;;;;6.47;5.83;;;;;;;;;;5110368;28;20200;-78
2024/01/02 09:17:07;;;;;;;13.83;12.17;;;;;;;;;;5111225;28;20202;-78
2024/01/02 09:19:33;;;;;;;6.90;6.20;;;;;;;;;;5110954;28;20222;-78
2024/01/02 09:22:00;;;;;;;4.63;4.03;;;;;;;;;;5111238;28;20268;-77
2024/01/02 09:24:28;;;;;;;4.63;4.23;;;;;;;;;;5111191;28;20288;-78
2024/01/02 09:26:57;;;;;;;11.63;10.43;;;;;;;;;;5085203;28;20191;-77
2024/01/02 09:29:24;;;;;;;10.77;8.50;;;;;;;;;;5114474;28;20218;-77
2024/01/02 09:31:52;;;;;;;5.33;4.83;;;;;;;;;;5114663;28;20219;-78
2024/01/02 09:34:20;;;;;;;6.37;5.77;;;;;;;;;;5114606;28;20723;-78
2024/01/02 09:36:47;;;;;;;4.53;4.13;;;;;;;;;;5114598;28;20196;-77
2024/01/02 09:39:14;;;;;;;8.93;6.30;;;;;;;;;;5114648;28;20671;-77
2024/01/02 09:41:53;;;;;;;17.20;12.53;;;;;;;;;;5114378;28;20689;-78
2024/01/02 09:44:31;;;;;;;15.13;11.53;;;;;;;;;;5114257;28;20214;-78
2024/01/02 09:47:09;;;;;;;7.17;6.47;;;;;;;;;;5114958;28;20199;-78
2024/01/02 09:49:43;;;;;;;6.77;6.17;;;;;;;;;;5115212;28;20542;-78
2024/01/02 09:52:32;;;;;;;6.50;4.77;;;;;;;;;;5114813;28;20190;-78
2024/01/02 09:55:04;;;;;;;7.67;5.37;;;;;;;;;;5114570;28;20261;-77
2024/01/02 09:57:36;;;;;;;4.90;4.37;;;;;;;;;;5086918;28;20203;-77
2024/01/02 10:00:05;;;;;;;6.67;5.77;;;;;;;;;;5114046;28;20211;-77
2024/01/02 10:03:01;;;;;;;6.00;5.07;;;;;;;;;;5114612;28;20207;-77
2024/01/02 10:05:43;;;;;;;5.30;4.80;;;;;;;;;;5100184;28;20191;-77
2024/01/02 10:08:33;;;;;;;4.40;4.00;;;;;;;;;;5113888;28;20244;-77
2024/01/02 10:11:09;;;;;;;7.23;4.70;;;;;;;;;;5114069;28;20206;-77
2024/01/02 10:13:45;;;;;;;10.50;8.50;;;;;;;;;;5114223;28;20206;-78
2024/01/02 10:16:20;;;;;;;7.90;6.77;;;;;;;;;;5114482;28;20206;-78
2024/01/02 10:19:00;;;;;;;5.27;3.53;;;;;;;;;;5114003;28;20194;-78
2024/01/02 10:21:30;;;;;;;4.67;3.23;;;;;;;;;;5114001;28;20301;-77
2024/01/02 10:24:06;;;;;;;4.50;3.80;;;;;;;;;;5113661;28;20713;-78
2024/01/02 10:26:36;;;;;;;6.50;3.97;;;;;;;;;;5114279;28;20191;-77
2024/01/02 10:29:05;;;;;;;6.00;5.40;;;;;;;;;;5113306;28;20199;-78
2024/01/02 10:31:38;;;;;;;6.67;6.03;;;;;;;;;;5114302;28;20238;-78
2024/01/02 10:34:11;;;;;;;5.67;5.03;;;;;;;;;;5113782;28;20194;-79
2024/01/02 10:36:41;;;;;;;5.83;4.40;;;;;;;;;;5114049;28;20195;-78
2024/01/02 10:39:12;;;;;;;10.63;7.00;;;;;;;;;;5112385;28;20227;-80
2024/01/02 10:41:48;;;;;;;10.83;8.83;;;;;;;;;;5114158;28;20191;-79
2024/01/02 10:44:22;;;;;;;10.53;5.73;;;;;;;;;;5113774;28;20191;-79
2024/01/02 10:46:56;;;;;;;7.30;5.53;;;;;;;;;;5113832;28;20195;-80
2024/01/02 10:49:26;;;;;;;6.10;5.50;;;;;;;;;;5113537;28;20677;-80
2024/01/02 10:51:59;;;;;;;8.47;7.63;;;;;;;;;;5111438;28;20204;-80
2024/01/02 10:54:36;;;;;;;10.50;8.87;;;;;;;;;;5113578;28;20199;-79
2024/01/02 10:57:06;;;;;;;11.53;6.80;;;;;;;;;;5113373;28;20662;-80
2024/01/02 10:59:47;;;;;;;13.63;11.33;;;;;;;;;;5113358;28;20734;-80
2024/01/02 11:02:24;;;;;;;7.30;6.50;;;;;;;;;;5112929;28;20195;-80
2024/01/02 11:04:55;;;;;;;7.63;6.93;;;;;;;;;;5113817;28;20216;-80
2024/01/02 11:07:26;;;;;;;7.87;7.07;;;;;;;;;;5113222;28;20198;-80
2024/01/02 11:09:59;;;;;;;8.73;7.67;;;;;;;;;;5113206;28;20564;-79
2024/01/02 11:12:32;;;;;;;7.60;6.90;;;;;;;;;;5112816;28;20573;-80
2024/01/02 11:14:59;;;;;;;6.70;6.03;;;;;;;;;;5113073;28;20195;-80
2024/01/02 11:17:26;;;;;;;6.57;5.93;;;;;;;;;;5112487;28;20199;-80
2024/01/02 11:19:58;;;;;;;10.17;9.17;;;;;;;;;;5112846;28;20250;-79
2024/01/02 11:22:32;;;;;;;11.80;10.60;;;;;;;;;;5112399;28;20200;-79
2024/01/02 11:25:04;;;;;;;9.77;8.30;;;;;;;;;;5110345;28;20195;-79
2024/01/02 11:27:31;;;;;;;10.83;9.70;;;;;;;;;;5112496;28;20201;-80
2024/01/02 11:30:04;;;;;;;8.60;7.80;;;;;;;;;;5099188;28;20195;-80
2024/01/02 11:32:36;;;;;;;10.07;8.97;;;;;;;;;;5111779;28;20309;-80
2024/01/02 11:35:06;;;;;;;7.93;6.73;;;;;;;;;;5112259;28;20199;-80
2024/01/02 11:37:39;;;;;;;9.13;7.50;;;;;;;;;;5112224;28;20654;-79
2024/01/02 11:40:21;;;;;;;7.70;7.00;;;;;;;;;;5112359;28;20246;-80
2024/01/02 11:42:53;;;;;;;8.13;6.43;;;;;;;;;;5111923;28;20245;-79
2024/01/02 11:45:21;;;;;;;5.23;4.73;;;;;;;;;;5112585;28;20191;-80
2024/01/02 11:48:01;;;;;;;6.93;5.60;;;;;;;;;;5111802;28;20200;-79
2024/01/02 11:50:36;;;;;;;5.30;4.80;;;;;;;;;;5110828;28;20656;-80
2024/01/02 11:53:10;;;;;;;6.30;5.70;;;;;;;;;;5112343;28;20198;-80
2024/01/02 11:55:45;;;;;;;5.97;5.27;;;;;;;;;;5111836;28;20195;-80
2024/01/02 11:58:16;;;;;;;5.33;4.83;;;;;;;;;;5111602;28;20191;-80
2024/01/02 12:00:53;;;;;;;5.17;4.20;;;;;;;;;;5111605;28;20709;-80
2024/01/02 12:03:31;;;;;;;5.30;4.50;;;;;;;;;;5111692;28;20199;-80
2024/01/02 12:06:04;;;;;;;6.20;5.10;;;;;;;;;;5112195;28;20198;-80
2024/01/02 12:08:36;;;;;;;5.33;4.93;;;;;;;;;;5111189;28;20560;-80
2024/01/02 12:11:06;;;;;;;3.97;3.57;;;;;;;;;;5111839;28;20200;-80
2024/01/02 12:13:40;;;;;;;4.17;3.77;;;;;;;;;;5111529;28;20215;-80
2024/01/02 12:16:10;;;;;;;4.10;3.43;;;;;;;;;;5111956;28;20577;-80
2024/01/02 12:18:39;;;;;;;3.90;3.60;;;;;;;;;;5111379;28;20200;-80
2024/01/02 12:21:11;;;;;;;4.27;3.87;;;;;;;;;;5111847;28;20215;-81
2024/01/02 12:23:40;;;;;;;3.57;3.27;;;;;;;;;;5111550;28;20195;-80
2024/01/02 12:26:07;;;;;;;4.43;3.47;;;;;;;;;;5111356;28;20199;-80
2024/01/02 12:28:36;;;;;;;6.17;4.77;;;;;;;;;;5111425;28;20421;-80
2024/01/02 12:31:06;;;;;;;7.40;5.53;;;;;;;;;;5111181;28;20223;-80
2024/01/02 12:33:34;;;;;;;8.90;6.73;;;;;;;;;;5111394;28;20199;-80
2024/01/02 12:36:08;;;;;;;4.73;4.33;;;;;;;;;;5111326;28;20234;-80
2024/01/02 12:38:47;;;;;;;6.23;4.57;;;;;;;;;;5108875;28;20191;-80
2024/01/02 12:41:19;;;;;;;4.73;4.17;;;;;;;;;;5111076;28;20222;-80
2024/01/02 12:43:49;;;;;;;8.20;4.57;;;;;;;;;;5111451;28;20283;-80
2024/01/02 12:46:20;;;;;;;3.93;3.27;;;;;;;;;;5081201;28;20191;-81
2024/01/02 12:48:52;;;;;;;4.83;4.37;;;;;;;;;;5111198;28;20357;-81
2024/01/02 12:51:20;;;;;;;6.93;3.70;;;;;;;;;;5110923;28;20677;-80
2024/01/02 12:53:51;;;;;;;3.93;3.53;;;;;;;;;;5111080;28;20199;-81
2024/01/02 12:56:19;;;;;;;3.77;3.47;;;;;;;;;;5111247;28;20203;-80
2024/01/02 12:58:46;;;;;;;4.63;4.23;;;;;;;;;;5111251;28;20202;-80
2024/01/02 13:01:14;;;;;;;3.33;3.03;;;;;;;;;;5111395;28;20640;-81
2024/01/02 13:03:44;;;;;;;3.20;2.90;;;;;;;;;;5114674;28;20195;-80
2024/01/02 13:06:16;;;;;;;7.63;5.80;;;;;;;;;;5114465;28;20210;-81
2024/01/02 13:08:43;;;;;;;4.10;3.70;;;;;;;;;;5114982;28;20195;-81
2024/01/02 13:11:12;;;;;;;3.57;3.27;;;;;;;;;;5115122;28;20196;-80
2024/01/02 13:13:46;;;;;;;4.33;3.93;;;;;;;;;;5115412;28;20629;-80
2024/01/02 13:16:13;;;;;;;3.53;3.20;;;;;;;;;;5114736;28;20588;-81
2024/01/02 13:18:40;;;;;;;3.13;2.93;;;;;;;;;;5115029;28;20199;-80
2024/01/02 13:21:07;;;;;;;3.17;2.50;;;;;;;;;;5114846;28;20230;-80
2024/01/02 13:23:34;;;;;;;3.53;2.40;;;;;;;;;;5114483;28;20200;-80
2024/01/02 13:26:01;;;;;;;3.40;3.10;;;;;;;;;;5114984;28;20581;-80
2024/01/02 13:28:29;;;;;;;2.87;2.67;;;;;;;;;;5114876;28;20199;-80
2024/01/02 13:30:59;;;;;;;4.03;3.67;;;;;;;;;;5115322;28;20206;-80
2024/01/02 13:33:25;;;;;;;3.97;3.57;;;;;;;;;;5114065;28;20200;-80
2024/01/02 13:36:01;;;;;;;3.57;3.27;;;;;;;;;;5114724;28;20195;-80
2024/01/02 13:38:30;;;;;;;3.70;2.43;;;;;;;;;;5114542;28;20209;-80
2024/01/02 13:41:03;;;;;;;2.80;2.60;;;;;;;;;;5114171;28;20701;-80
2024/01/02 13:43:35;;;;;;;2.73;2.53;;;;;;;;;;5114214;28;20195;-80
2024/01/02 13:46:10;;;;;;;2.70;2.50;;;;;;;;;;5114495;28;20191;-80
2024/01/02 13:48:40;;;;;;;3.07;2.77;;;;;;;;;;5114314;28;20209;-80
2024/01/02 13:51:07;;;;;;;3.77;3.47;;;;;;;;;;5088115;28;20200;-81
2024/01/02 13:53:54;;;;;;;3.27;2.97;;;;;;;;;;5114429;28;20195;-80
2024/01/02 13:56:21;;;;;;;3.10;2.87;;;;;;;;;;5094593;28;20225;-80
2024/01/02 13:58:58;;;;;;;3.60;3.30;;;;;;;;;;5114138;28;20199;-80
2024/01/02 14:01:35;;;;;;;4.00;3.63;;;;;;;;;;5114672;28;20314;-80
2024/01/02 14:04:04;;;;;;;2.63;2.43;;;;;;;;;;5113910;28;20660;-80
2024/01/02 14:06:32;;;;;;;4.30;3.90;;;;;;;;;;5114050;28;20207;-80
2024/01/02 14:09:14;;;;;;;3.43;3.07;;;;;;;;;;5113671;28;20191;-80
2024/01/02 14:11:55;;;;;;;3.30;3.00;;;;;;;;;;5114367;28;20244;-80
2024/01/02 14:14:29;;;;;;;3.83;3.47;;;;;;;;;;5112861;28;20282;-80
2024/01/02 14:16:59;;;;;;;3.80;3.50;;;;;;;;;;5113915;28;20233;-81
2024/01/02 14:19:32;;;;;;;9.43;7.30;;;;;;;;;;5113859;28;20198;-80
2024/01/02 14:22:19;;;;;;;15.73;9.33;;;;;;;;;;5080776;28;20219;-80
2024/01/02 14:24:58;;;;;;;6.20;5.00;;;;;;;;;;5109656;28;20572;-81
2024/01/02 14:27:32;;;;;;;6.53;5.30;;;;;;;;;;5113493;28;20578;-80
2024/01/02 14:30:12;;;;;;;6.10;4.60;;;;;;;;;;5087829;28;20202;-80
2024/01/02 14:32:53;;;;;;;4.97;4.47;;;;;;;;;;5113064;28;20311;-80
2024/01/02 14:35:24;;;;;;;7.00;4.93;;;;;;;;;;5113844;28;20196;-81
2024/01/02 14:38:00;;;;;;;26.83;20.43;;;;;;;;;;5111752;28;20197;-80
2024/01/02 14:40:35;;;;;;;65.80;50.87;;;;;;;;;;5113414;28;20199;-80
2024/01/02 14:43:16;;;;;;;79.03;57.33;;;;;;;;;;5113691;28;20197;-80
2024/01/02 14:45:49;;;;;;;65.87;50.57;;;;;;;;;;5112585;28;20195;-80
2024/01/02 14:48:19;;;;;;;33.67;27.90;;;;;;;;;;5113379;28;20201;-81